createdAt,value
2022-11-30T00:01:17.403Z,15.82
2022-11-30T00:03:44.979Z,13.15
2022-11-30T00:06:13.475Z,11.05
2022-11-30T00:08:41.001Z,11.43
2022-11-30T00:11:09.090Z,7.50
2022-11-30T00:13:36.760Z,9.73
2022-11-30T00:16:05.921Z,14.27
2022-11-30T00:18:33.467Z,10.57
2022-11-30T00:21:01.884Z,8.68
2022-11-30T00:23:32.759Z,9.02
2022-11-30T00:26:01.369Z,10.10
2022-11-30T00:28:29.104Z,10.90
2022-11-30T00:31:00.016Z,8.68
2022-11-30T00:33:28.878Z,16.70
2022-11-30T00:35:57.124Z,16.13
2022-11-30T00:38:24.687Z,10.93
2022-11-30T00:40:52.389Z,14.57
2022-11-30T00:43:19.882Z,16.30
2022-11-30T00:45:47.409Z,11.45
2022-11-30T00:48:14.963Z,10.55
2022-11-30T00:50:43.805Z,8.75
2022-11-30T00:53:11.295Z,16.50
2022-11-30T00:55:38.789Z,11.60
2022-11-30T00:58:07.131Z,12.90
2022-11-30T01:00:34.652Z,10.65
2022-11-30T01:03:02.853Z,9.00
2022-11-30T01:05:30.546Z,13.77
2022-11-30T01:08:02.071Z,15.88
2022-11-30T01:10:29.830Z,10.05
2022-11-30T01:12:57.366Z,14.30
2022-11-30T01:15:24.875Z,14.40
2022-11-30T01:17:52.349Z,11.82
2022-11-30T01:20:19.960Z,10.27
2022-11-30T01:22:47.453Z,10.65
2022-11-30T01:25:16.530Z,11.70
2022-11-30T01:27:44.102Z,8.43
2022-11-30T01:30:12.103Z,15.55
2022-11-30T01:32:39.640Z,13.90
2022-11-30T01:35:07.986Z,13.35
2022-11-30T01:37:35.541Z,9.88
2022-11-30T01:40:03.108Z,14.07
2022-11-30T01:42:33.020Z,12.90
2022-11-30T01:45:01.516Z,11.13
2022-11-30T01:47:31.125Z,15.68
2022-11-30T01:50:02.302Z,15.00
2022-11-30T01:52:32.920Z,13.02
2022-11-30T01:55:04.229Z,9.02
2022-11-30T01:57:36.844Z,6.95
2022-11-30T02:00:08.191Z,7.75
2022-11-30T02:02:41.326Z,16.75
2022-11-30T02:05:09.097Z,14.10
2022-11-30T02:07:36.940Z,9.77
2022-11-30T02:10:06.600Z,11.48
2022-11-30T02:12:38.650Z,11.65
2022-11-30T02:15:08.934Z,8.77
2022-11-30T02:17:41.325Z,13.93
2022-11-30T02:20:23.722Z,10.27
2022-11-30T02:22:59.514Z,10.95
2022-11-30T02:25:29.943Z,8.73
2022-11-30T02:28:08.024Z,6.38
2022-11-30T02:30:38.835Z,7.30
2022-11-30T02:33:08.303Z,9.48
2022-11-30T02:35:37.194Z,11.98
2022-11-30T02:38:05.125Z,10.63
2022-11-30T02:40:32.667Z,9.43
2022-11-30T02:43:01.145Z,10.48
2022-11-30T02:45:31.606Z,7.53
2022-11-30T02:48:03.903Z,8.40
2022-11-30T02:50:34.155Z,10.38
2022-11-30T02:53:01.794Z,9.95
2022-11-30T02:55:29.447Z,11.65
2022-11-30T02:57:56.913Z,12.57
2022-11-30T03:00:24.488Z,12.10
2022-11-30T03:02:51.993Z,14.07
2022-11-30T03:05:20.834Z,8.15
2022-11-30T03:07:48.560Z,12.02
2022-11-30T03:10:16.396Z,8.93
2022-11-30T03:12:43.891Z,10.70
2022-11-30T03:15:11.970Z,16.40
2022-11-30T03:17:39.667Z,10.43
2022-11-30T03:20:08.090Z,9.00
2022-11-30T03:22:37.040Z,10.07
2022-11-30T03:25:04.684Z,9.43
2022-11-30T03:27:32.350Z,11.45
2022-11-30T03:29:59.919Z,7.88
2022-11-30T03:32:27.673Z,10.60
2022-11-30T03:34:55.146Z,10.60
2022-11-30T03:37:22.622Z,9.88
2022-11-30T03:39:57.758Z,13.18
2022-11-30T03:42:25.782Z,8.20
2022-11-30T03:44:53.226Z,10.23
2022-11-30T03:47:20.726Z,8.15
2022-11-30T03:49:48.206Z,7.75
2022-11-30T03:52:15.923Z,7.80
2022-11-30T03:54:43.457Z,7.45
2022-11-30T03:57:12.321Z,11.57
2022-11-30T03:59:39.791Z,6.10
2022-11-30T04:02:07.377Z,12.90
2022-11-30T04:04:34.906Z,9.98
2022-11-30T04:07:02.357Z,7.50
2022-11-30T04:09:29.857Z,10.60
2022-11-30T04:11:57.365Z,14.23
2022-11-30T04:14:26.155Z,10.60
2022-11-30T04:16:53.690Z,8.50
2022-11-30T04:19:21.189Z,9.77
2022-11-30T04:21:48.668Z,7.93
2022-11-30T04:24:16.122Z,9.07
2022-11-30T04:26:43.775Z,11.23
2022-11-30T04:29:11.261Z,11.00
2022-11-30T04:31:40.192Z,7.40
2022-11-30T04:34:07.783Z,8.52
2022-11-30T04:36:35.316Z,12.40
2022-11-30T04:39:02.823Z,9.52
2022-11-30T04:41:30.670Z,8.80
2022-11-30T04:43:58.156Z,6.97
2022-11-30T04:46:25.672Z,10.88
2022-11-30T04:48:54.546Z,11.57
2022-11-30T04:51:22.010Z,6.45
2022-11-30T04:53:49.519Z,6.65
2022-11-30T04:56:17.009Z,6.53
2022-11-30T04:58:44.495Z,7.20
2022-11-30T05:01:11.956Z,9.55
2022-11-30T05:03:39.442Z,7.53
2022-11-30T05:06:08.458Z,8.50
2022-11-30T05:08:36.002Z,8.70
2022-11-30T05:11:03.595Z,12.63
2022-11-30T05:13:31.722Z,11.32
2022-11-30T05:15:59.303Z,11.70
2022-11-30T05:18:27.197Z,9.50
2022-11-30T05:20:54.713Z,10.52
2022-11-30T05:23:23.574Z,10.20
2022-11-30T05:25:51.723Z,10.20
2022-11-30T05:28:19.232Z,8.43
2022-11-30T05:30:46.756Z,9.57
2022-11-30T05:33:14.592Z,8.13
2022-11-30T05:35:42.086Z,9.98
2022-11-30T05:38:09.763Z,11.30
2022-11-30T05:40:38.864Z,10.38
2022-11-30T05:43:06.944Z,10.45
2022-11-30T05:45:34.399Z,8.60
2022-11-30T05:48:01.911Z,10.23
2022-11-30T05:50:29.426Z,10.88
2022-11-30T05:52:57.200Z,10.98
2022-11-30T05:55:25.583Z,8.85
2022-11-30T05:57:54.410Z,7.20
2022-11-30T06:00:22.465Z,9.35
2022-11-30T06:02:50.073Z,14.25
2022-11-30T06:05:17.579Z,7.70
2022-11-30T06:07:45.102Z,10.45
2022-11-30T06:10:13.196Z,12.45
2022-11-30T06:12:40.724Z,6.03
2022-11-30T06:15:10.058Z,6.50
2022-11-30T06:17:38.216Z,10.15
2022-11-30T06:20:06.019Z,11.30
2022-11-30T06:22:33.505Z,13.05
2022-11-30T06:25:01.828Z,8.00
2022-11-30T06:27:31.278Z,10.00
2022-11-30T06:29:58.775Z,9.15
2022-11-30T06:32:27.640Z,11.30
2022-11-30T06:34:55.369Z,7.55
2022-11-30T06:37:22.953Z,12.15
2022-11-30T06:40:05.868Z,11.00
2022-11-30T06:42:33.937Z,12.07
2022-11-30T06:45:01.421Z,11.13
2022-11-30T06:47:30.276Z,9.55
2022-11-30T06:49:57.788Z,12.40
2022-11-30T06:52:25.306Z,9.90
2022-11-30T06:54:52.780Z,15.43
2022-11-30T06:57:20.290Z,10.98
2022-11-30T06:59:47.760Z,18.73
2022-11-30T07:02:18.485Z,14.23
2022-11-30T07:04:47.789Z,18.23
2022-11-30T07:07:15.477Z,14.82
2022-11-30T07:09:43.139Z,11.88
2022-11-30T07:12:10.628Z,10.55
2022-11-30T07:14:38.077Z,12.57
2022-11-30T07:17:05.863Z,12.77
2022-11-30T07:19:34.204Z,16.55
2022-11-30T07:22:03.414Z,15.30
2022-11-30T07:24:49.582Z,11.68
2022-11-30T07:27:19.793Z,12.57
2022-11-30T07:29:48.906Z,13.95
2022-11-30T07:32:16.455Z,11.00
2022-11-30T07:34:44.427Z,12.63
2022-11-30T07:37:13.713Z,11.48
2022-11-30T07:39:41.299Z,11.63
2022-11-30T07:42:08.798Z,20.30
2022-11-30T07:44:36.241Z,12.85
2022-11-30T07:47:03.721Z,17.10
2022-11-30T07:49:31.931Z,11.60
2022-11-30T07:51:59.356Z,10.68
2022-11-30T07:54:28.201Z,13.20
2022-11-30T07:56:55.738Z,9.57
2022-11-30T07:59:23.184Z,13.25
2022-11-30T08:01:50.833Z,10.25
2022-11-30T08:04:18.425Z,15.48
2022-11-30T08:06:46.275Z,12.32
2022-11-30T08:09:19.256Z,15.50
2022-11-30T08:11:49.948Z,10.98
2022-11-30T08:14:17.514Z,16.83
2022-11-30T08:16:45.084Z,16.13
2022-11-30T08:19:12.616Z,16.05
2022-11-30T08:21:40.134Z,13.32
2022-11-30T08:24:07.821Z,16.85
2022-11-30T08:26:35.367Z,16.10
2022-11-30T08:29:04.693Z,21.10
2022-11-30T08:31:32.926Z,11.20
2022-11-30T08:34:01.186Z,12.80
2022-11-30T08:36:31.500Z,12.60
2022-11-30T08:38:59.875Z,15.27
2022-11-30T08:41:27.741Z,17.05
2022-11-30T08:43:55.837Z,17.75
2022-11-30T08:49:21.411Z,19.70
2022-11-30T08:54:39.184Z,18.83
2022-11-30T08:57:06.708Z,18.02
2022-11-30T08:59:34.270Z,15.07
2022-11-30T09:02:03.337Z,9.82
2022-11-30T09:04:30.931Z,12.77
2022-11-30T09:07:00.808Z,19.40
2022-11-30T09:09:28.786Z,20.50
2022-11-30T09:12:30.721Z,15.98
2022-11-30T09:14:58.970Z,15.13
2022-11-30T09:17:28.151Z,20.30
2022-11-30T09:19:58.913Z,15.38
2022-11-30T09:22:26.523Z,13.27
2022-11-30T09:24:54.090Z,17.42
2022-11-30T09:27:21.724Z,14.73
2022-11-30T09:29:49.473Z,16.45
2022-11-30T09:32:17.052Z,18.05
2022-11-30T09:34:46.433Z,17.77
2022-11-30T09:37:14.135Z,13.57
2022-11-30T09:39:43.240Z,14.98
2022-11-30T09:42:19.727Z,18.08
2022-11-30T09:44:55.601Z,19.23
2022-11-30T09:47:38.029Z,15.70
2022-11-30T09:50:11.950Z,16.90
2022-11-30T09:52:42.152Z,15.13
2022-11-30T09:55:10.755Z,18.98
2022-11-30T09:57:44.523Z,15.23
2022-11-30T10:00:15.076Z,14.00
2022-11-30T10:02:42.888Z,18.58
2022-11-30T10:05:15.707Z,19.23
2022-11-30T10:07:53.091Z,16.95
2022-11-30T10:10:33.701Z,20.05
2022-11-30T10:13:07.905Z,16.55
2022-11-30T10:15:39.341Z,15.82
2022-11-30T10:18:14.314Z,11.50
2022-11-30T10:20:53.446Z,10.63
2022-11-30T10:23:32.431Z,9.07
2022-11-30T10:26:03.233Z,20.90
2022-11-30T10:28:48.349Z,15.27
2022-11-30T10:31:17.309Z,16.33
2022-11-30T10:33:46.759Z,14.00
2022-11-30T10:36:21.237Z,10.88
2022-11-30T10:38:49.588Z,13.30
2022-11-30T10:41:21.380Z,10.98
2022-11-30T10:43:52.853Z,14.05
2022-11-30T10:46:24.176Z,17.90
2022-11-30T10:48:56.281Z,16.40
2022-11-30T10:51:26.323Z,14.13
2022-11-30T10:53:54.184Z,13.30
2022-11-30T10:56:35.663Z,22.92
2022-11-30T10:59:05.822Z,25.27
2022-11-30T11:01:35.453Z,13.52
2022-11-30T11:04:10.600Z,16.73
2022-11-30T11:06:44.026Z,13.63
2022-11-30T11:09:24.288Z,12.50
2022-11-30T11:11:54.567Z,16.10
2022-11-30T11:14:23.113Z,15.52
2022-11-30T11:16:55.183Z,18.52
2022-11-30T11:19:33.738Z,15.63
2022-11-30T11:22:06.377Z,13.90
2022-11-30T11:24:34.777Z,14.50
2022-11-30T11:27:03.486Z,14.77
2022-11-30T11:29:33.719Z,12.85
2022-11-30T11:32:17.803Z,13.65
2022-11-30T11:34:50.837Z,11.55
2022-11-30T11:37:34.084Z,15.45
2022-11-30T11:40:07.768Z,16.98
2022-11-30T11:42:40.642Z,13.13
2022-11-30T11:45:15.988Z,17.30
2022-11-30T11:47:45.823Z,15.77
2022-11-30T11:50:43.285Z,15.90
2022-11-30T11:53:25.057Z,12.65
2022-11-30T11:55:54.042Z,15.90
2022-11-30T11:58:32.342Z,16.88
2022-11-30T12:01:37.590Z,16.52
2022-11-30T12:03:58.048Z,14.60
2022-11-30T12:06:26.782Z,10.75
2022-11-30T12:08:57.584Z,19.33
2022-11-30T12:11:27.809Z,17.17
2022-11-30T12:13:55.342Z,11.95
2022-11-30T12:16:32.452Z,12.57
2022-11-30T12:19:04.065Z,12.95
2022-11-30T12:21:37.462Z,11.90
2022-11-30T12:24:25.260Z,18.73
2022-11-30T12:26:58.044Z,16.75
2022-11-30T12:29:29.881Z,13.27
2022-11-30T12:32:11.250Z,16.48
2022-11-30T12:34:45.671Z,14.30
2022-11-30T12:37:15.522Z,12.70
2022-11-30T12:39:48.116Z,9.80
2022-11-30T12:42:18.124Z,12.00
2022-11-30T12:44:51.989Z,12.30
2022-11-30T12:47:26.728Z,13.77
2022-11-30T12:50:02.389Z,13.60
2022-11-30T12:52:36.136Z,10.70
2022-11-30T12:55:08.976Z,10.77
2022-11-30T12:57:39.236Z,10.60
2022-11-30T13:00:10.003Z,14.65
2022-11-30T13:02:45.117Z,9.60
2022-11-30T13:05:16.444Z,12.13
2022-11-30T13:07:46.075Z,10.88
2022-11-30T13:10:19.621Z,9.80
2022-11-30T13:12:50.350Z,14.65
2022-11-30T13:15:20.390Z,14.20
2022-11-30T13:17:49.748Z,13.32
2022-11-30T13:20:18.877Z,16.95
2022-11-30T13:22:49.475Z,13.65
2022-11-30T13:25:38.952Z,14.13
2022-11-30T13:28:13.499Z,14.30
2022-11-30T13:30:44.421Z,8.07
2022-11-30T13:33:31.392Z,10.45
2022-11-30T13:35:59.258Z,13.90
2022-11-30T13:38:42.307Z,12.23
2022-11-30T13:41:12.380Z,13.27
2022-11-30T13:43:42.731Z,12.10
2022-11-30T13:46:19.253Z,11.98
2022-11-30T13:48:47.223Z,12.18
2022-11-30T13:51:34.259Z,17.17
2022-11-30T13:54:27.231Z,16.48
2022-11-30T13:56:56.901Z,15.05
2022-11-30T13:59:36.289Z,13.70
2022-11-30T14:02:27.934Z,18.67
2022-11-30T14:05:14.432Z,15.73
2022-11-30T14:07:42.437Z,9.30
2022-11-30T14:10:28.129Z,17.20
2022-11-30T14:13:02.569Z,9.10
2022-11-30T14:15:34.219Z,11.02
2022-11-30T14:18:03.931Z,11.82
2022-11-30T14:20:37.793Z,17.30
2022-11-30T14:23:06.068Z,23.48
2022-11-30T14:25:34.731Z,14.55
2022-11-30T14:28:04.483Z,23.38
2022-11-30T14:30:33.246Z,18.13
2022-11-30T14:33:02.489Z,18.42
2022-11-30T14:35:31.313Z,14.48
2022-11-30T14:38:00.486Z,15.45
2022-11-30T14:40:29.778Z,17.58
2022-11-30T14:42:58.677Z,15.93
2022-11-30T14:45:28.804Z,12.55
2022-11-30T14:48:05.869Z,16.83
2022-11-30T14:50:33.703Z,18.58
2022-11-30T14:53:08.224Z,17.33
2022-11-30T14:55:39.729Z,15.77
2022-11-30T14:58:12.723Z,11.02
2022-11-30T15:00:43.465Z,13.30
2022-11-30T15:03:18.379Z,18.73
2022-11-30T15:05:45.963Z,17.15
2022-11-30T15:08:14.905Z,13.02
2022-11-30T15:10:42.584Z,18.25
2022-11-30T15:13:13.079Z,21.88
2022-11-30T15:15:50.457Z,25.23
2022-11-30T15:18:18.852Z,15.75
2022-11-30T15:20:53.896Z,15.70
2022-11-30T15:23:21.464Z,13.10
2022-11-30T15:25:50.948Z,16.80
2022-11-30T15:28:21.563Z,15.07
2022-11-30T15:30:53.476Z,13.40
2022-11-30T15:33:22.570Z,14.40
2022-11-30T15:36:16.009Z,12.88
2022-11-30T15:38:39.639Z,16.35
2022-11-30T15:41:08.702Z,14.05
2022-11-30T15:43:37.716Z,18.20
2022-11-30T15:46:09.024Z,20.38
2022-11-30T15:48:38.970Z,13.68
2022-11-30T15:51:07.711Z,22.27
2022-11-30T15:53:36.208Z,15.93
2022-11-30T15:56:06.027Z,13.82
2022-11-30T15:58:37.113Z,14.45
2022-11-30T16:01:09.371Z,24.83
2022-11-30T16:03:58.058Z,13.20
2022-11-30T16:06:27.101Z,12.93
2022-11-30T16:08:55.340Z,19.60
2022-11-30T16:11:23.761Z,13.07
2022-11-30T16:13:51.288Z,24.83
2022-11-30T16:16:21.842Z,10.35
2022-11-30T16:18:51.423Z,21.13
2022-11-30T16:21:20.426Z,15.45
2022-11-30T16:23:48.969Z,17.27
2022-11-30T16:26:43.650Z,17.00
2022-11-30T16:29:08.638Z,12.60
2022-11-30T16:31:40.901Z,24.73
2022-11-30T16:34:33.993Z,19.20
2022-11-30T16:37:07.522Z,18.70
2022-11-30T16:39:37.794Z,17.60
2022-11-30T16:42:10.952Z,16.13
2022-11-30T16:44:38.818Z,14.45
2022-11-30T16:47:21.205Z,21.33
2022-11-30T16:49:48.899Z,19.10
2022-11-30T16:52:17.711Z,18.80
2022-11-30T16:54:45.181Z,17.55
2022-11-30T16:57:12.708Z,13.48
2022-11-30T16:59:40.182Z,26.10
2022-11-30T17:02:15.510Z,17.02
2022-11-30T17:04:43.199Z,19.90
2022-11-30T17:07:10.660Z,12.60
2022-11-30T17:09:38.558Z,20.67
2022-11-30T17:12:06.666Z,21.42
2022-11-30T17:14:34.456Z,27.10
2022-11-30T17:17:02.099Z,18.63
2022-11-30T17:19:31.074Z,18.83
2022-11-30T17:21:58.841Z,17.77
2022-11-30T17:24:26.363Z,15.50
2022-11-30T17:26:53.902Z,22.63
2022-11-30T17:29:21.424Z,19.02
2022-11-30T17:31:48.935Z,19.17
2022-11-30T17:34:16.472Z,19.50
2022-11-30T17:36:45.735Z,17.88
2022-11-30T17:39:13.801Z,27.15
2022-11-30T17:41:41.621Z,21.13
2022-11-30T17:44:10.318Z,16.50
2022-11-30T17:46:38.744Z,18.08
2022-11-30T17:49:06.307Z,20.33
2022-11-30T17:51:33.983Z,23.45
2022-11-30T17:54:03.126Z,15.77
2022-11-30T17:56:30.658Z,27.25
2022-11-30T17:59:03.380Z,19.40
2022-11-30T18:01:31.039Z,14.68
2022-11-30T18:03:59.219Z,27.33
2022-11-30T18:06:27.778Z,25.05
2022-11-30T18:08:55.332Z,18.88
2022-11-30T18:11:25.107Z,18.35
2022-11-30T18:13:53.968Z,20.02
2022-11-30T18:16:25.238Z,19.52
2022-11-30T18:18:53.305Z,25.80
2022-11-30T18:21:21.852Z,15.30
2022-11-30T18:23:49.935Z,23.13
2022-11-30T18:26:18.492Z,22.45
2022-11-30T18:28:47.716Z,19.02
2022-11-30T18:31:15.245Z,19.77
2022-11-30T18:33:43.099Z,25.05
2022-11-30T18:36:10.980Z,20.80
2022-11-30T18:38:47.630Z,21.50
2022-11-30T18:41:15.126Z,22.17
2022-11-30T18:43:42.591Z,18.02
2022-11-30T18:46:12.174Z,24.55
2022-11-30T18:48:43.340Z,19.75
2022-11-30T18:51:11.641Z,30.58
2022-11-30T18:53:48.216Z,23.08
2022-11-30T18:56:16.797Z,17.80
2022-11-30T18:58:44.498Z,23.20
2022-11-30T19:01:14.691Z,26.75
2022-11-30T19:03:42.223Z,22.25
2022-11-30T19:06:10.783Z,29.23
2022-11-30T19:08:39.629Z,28.85
2022-11-30T19:11:08.954Z,30.52
2022-11-30T19:13:36.877Z,26.52
2022-11-30T19:16:05.070Z,28.60
2022-11-30T19:18:34.070Z,28.08
2022-11-30T19:21:02.543Z,26.05
2022-11-30T19:23:31.052Z,22.35
2022-11-30T19:26:02.845Z,28.67
2022-11-30T19:28:30.805Z,28.02
2022-11-30T19:30:58.633Z,25.75
2022-11-30T19:33:26.289Z,19.65
2022-11-30T19:36:00.583Z,23.75
2022-11-30T19:38:28.094Z,24.23
2022-11-30T19:40:55.566Z,20.35
2022-11-30T19:43:23.134Z,22.65
2022-11-30T19:45:50.668Z,23.35
2022-11-30T19:48:18.185Z,19.45
2022-11-30T19:50:45.901Z,19.83
2022-11-30T19:53:14.735Z,18.45
2022-11-30T19:55:42.335Z,22.55
2022-11-30T19:58:21.426Z,17.00
2022-11-30T20:00:49.640Z,18.88
2022-11-30T20:03:17.942Z,20.75
2022-11-30T20:05:49.184Z,19.80
2022-11-30T20:08:18.524Z,16.58
2022-11-30T20:10:46.051Z,22.70
2022-11-30T20:13:13.595Z,16.23
2022-11-30T20:15:44.302Z,21.73
2022-11-30T20:18:11.890Z,25.08
2022-11-30T20:20:39.413Z,19.10
2022-11-30T20:23:07.252Z,14.45
2022-11-30T20:25:36.100Z,18.25
2022-11-30T20:28:07.019Z,25.40
2022-11-30T20:30:37.350Z,18.65
2022-11-30T20:33:04.971Z,23.23
2022-11-30T20:35:34.578Z,13.55
2022-11-30T20:38:02.289Z,18.40
2022-11-30T20:40:29.878Z,15.88
2022-11-30T20:42:58.954Z,18.33
2022-11-30T20:45:26.409Z,19.33
2022-11-30T20:47:53.938Z,22.70
2022-11-30T20:50:21.514Z,30.92
2022-11-30T20:52:49.052Z,20.08
2022-11-30T20:55:16.957Z,18.55
2022-11-30T20:57:44.405Z,15.65
2022-11-30T21:00:16.005Z,21.38
2022-11-30T21:02:48.029Z,16.27
2022-11-30T21:05:18.854Z,19.00
2022-11-30T21:07:46.661Z,21.08
2022-11-30T21:10:14.969Z,18.52
2022-11-30T21:12:42.785Z,17.23
2022-11-30T21:15:11.705Z,20.92
2022-11-30T21:17:41.296Z,20.33
2022-11-30T21:20:10.939Z,14.52
2022-11-30T21:22:38.482Z,20.05
2022-11-30T21:25:06.873Z,11.60
2022-11-30T21:27:35.998Z,10.57
2022-11-30T21:30:03.605Z,10.43
2022-11-30T21:32:31.130Z,12.63
2022-11-30T21:35:00.977Z,11.23
2022-11-30T21:37:30.482Z,8.60
2022-11-30T21:39:58.110Z,9.88
2022-11-30T21:42:27.896Z,12.20
2022-11-30T21:44:55.382Z,11.80
2022-11-30T21:47:22.878Z,11.85
2022-11-30T21:49:52.754Z,11.57
2022-11-30T21:52:20.299Z,10.25
2022-11-30T21:54:53.499Z,12.88
2022-11-30T21:57:21.482Z,14.15
2022-11-30T21:59:50.509Z,12.40
2022-11-30T22:02:18.193Z,12.27
2022-11-30T22:04:46.067Z,10.65
2022-11-30T22:07:13.901Z,12.35
2022-11-30T22:09:51.976Z,11.48
2022-11-30T22:12:19.510Z,9.20
2022-11-30T22:14:47.040Z,15.13
2022-11-30T22:17:14.575Z,12.68
2022-11-30T22:19:42.046Z,10.82
2022-11-30T22:22:09.553Z,9.20
2022-11-30T22:24:39.438Z,12.88
2022-11-30T22:27:08.299Z,12.85
2022-11-30T22:29:35.901Z,11.25
2022-11-30T22:32:03.528Z,8.25
2022-11-30T22:34:31.397Z,10.55
2022-11-30T22:36:58.855Z,18.60
2022-11-30T22:39:26.347Z,13.25
2022-11-30T22:41:56.137Z,11.65
2022-11-30T22:44:26.412Z,12.73
2022-11-30T22:46:54.041Z,10.27
2022-11-30T22:49:25.232Z,6.63
2022-11-30T22:51:52.816Z,7.72
2022-11-30T22:54:20.328Z,8.23
2022-11-30T22:56:47.837Z,10.35
2022-11-30T22:59:15.797Z,9.68
2022-11-30T23:01:45.545Z,9.45
2022-11-30T23:04:14.822Z,13.65
2022-11-30T23:06:43.621Z,10.73
2022-11-30T23:09:12.483Z,8.32
2022-11-30T23:11:40.341Z,10.05
2022-11-30T23:14:08.926Z,9.00
2022-11-30T23:16:36.894Z,14.82
2022-11-30T23:19:06.244Z,9.90
2022-11-30T23:21:39.072Z,7.97
2022-11-30T23:24:08.929Z,15.43
2022-11-30T23:26:37.620Z,9.93
2022-11-30T23:29:06.207Z,11.13
2022-11-30T23:31:35.775Z,12.15
2022-11-30T23:34:05.393Z,6.80
2022-11-30T23:36:34.686Z,9.40
2022-11-30T23:39:03.005Z,8.85
2022-11-30T23:41:30.515Z,7.95
2022-11-30T23:43:58.135Z,8.82
2022-11-30T23:46:25.791Z,7.93
2022-11-30T23:48:54.929Z,17.23
2022-11-30T23:51:22.626Z,10.73
2022-11-30T23:53:51.412Z,7.60
2022-11-30T23:56:19.532Z,9.73
2022-11-30T23:58:47.223Z,9.07
